Time;durP1;ratioP1;P1;durP2;ratioP2;P2;SDS_P1;SDS_P2;PMS_P1;PMS_P2;Temp;Humidity;BMP_temperature;BMP_pressure;BME280_temperature;BME280_humidity;BME280_pressure;Samples;Min_cycle;Max_cycle;Signal;HPM_P1;HPM_P2
2023/03/29 00:00:35;;;;;;;2.20;2.10;;;22.30;49.60;;;;;;5026575;28;20474;-74
2023/03/29 00:03:03;;;;;;;3.33;2.30;;;22.30;49.60;;;;;;5020917;28;20530;-73
2023/03/29 00:05:34;;;;;;;2.20;2.10;;;22.30;49.60;;;;;;5023098;28;20455;-79
2023/03/29 00:08:03;;;;;;;2.20;2.00;;;22.30;49.70;;;;;;5011518;28;20489;-74
2023/03/29 00:10:33;;;;;;;2.83;2.60;;;22.30;49.70;;;;;;5026727;28;20454;-74
2023/03/29 00:13:01;;;;;;;2.40;2.20;;;22.30;49.70;;;;;;5025971;28;20465;-76
2023/03/29 00:15:30;;;;;;;2.33;2.13;;;22.30;49.70;;;;;;5021675;28;20978;-73
2023/03/29 00:17:58;;;;;;;2.50;2.30;;;22.30;49.70;;;;;;5028811;28;20605;-73
2023/03/29 00:20:27;;;;;;;2.30;2.10;;;22.30;49.70;;;;;;5032223;28;20538;-72
2023/03/29 00:22:55;;;;;;;2.60;2.40;;;22.30;49.70;;;;;;5031794;28;20474;-73
2023/03/29 00:25:25;;;;;;;3.53;2.10;;;22.30;49.70;;;;;;5031401;28;20972;-79
2023/03/29 00:27:53;;;;;;;2.37;2.17;;;22.30;49.70;;;;;;5023122;28;20806;-74
2023/03/29 00:30:21;;;;;;;2.10;2.00;;;22.30;49.70;;;;;;5018353;28;20455;-73
2023/03/29 00:32:50;;;;;;;2.47;2.00;;;22.30;49.80;;;;;;5021102;28;20560;-73
2023/03/29 00:35:19;;;;;;;2.50;1.70;;;22.30;49.80;;;;;;5027310;28;20469;-73
2023/03/29 00:37:49;;;;;;;1.70;1.60;;;22.30;49.80;;;;;;5029955;28;20568;-72
2023/03/29 00:40:18;;;;;;;2.00;1.90;;;22.30;49.80;;;;;;5014750;28;20480;-73
2023/03/29 00:42:48;;;;;;;2.10;2.00;;;22.30;49.80;;;;;;5031232;28;20506;-72
2023/03/29 00:45:19;;;;;;;3.00;2.13;;;22.30;49.80;;;;;;5014187;28;20463;-73
2023/03/29 00:47:51;;;;;;;2.00;1.80;;;22.30;49.80;;;;;;5032337;28;20883;-74
2023/03/29 00:50:24;;;;;;;2.30;2.07;;;22.30;49.90;;;;;;5021528;28;20494;-74
2023/03/29 00:52:57;;;;;;;2.57;1.70;;;22.20;49.90;;;;;;5008766;28;21089;-74
2023/03/29 00:55:30;;;;;;;2.20;1.87;;;22.20;49.90;;;;;;5029245;28;20447;-73
2023/03/29 00:58:01;;;;;;;2.37;2.20;;;22.20;49.90;;;;;;5031767;28;20479;-73
2023/03/29 01:00:33;;;;;;;2.27;2.07;;;22.20;49.90;;;;;;5014649;28;20963;-73
2023/03/29 01:03:05;;;;;;;2.20;2.10;;;22.30;49.90;;;;;;5030306;28;20533;-76
2023/03/29 01:05:38;;;;;;;1.77;1.67;;;22.30;49.90;;;;;;5031054;28;20481;-75
2023/03/29 01:08:11;;;;;;;2.33;2.17;;;22.20;49.90;;;;;;5007959;28;20498;-73
2023/03/29 01:10:42;;;;;;;1.20;1.20;;;22.20;49.90;;;;;;5031652;28;20443;-73
2023/03/29 01:13:17;;;;;;;2.00;1.90;;;22.20;50.00;;;;;;5012627;28;20550;-74
2023/03/29 01:15:46;;;;;;;1.90;1.80;;;22.20;50.00;;;;;;5031487;28;20454;-73
2023/03/29 01:18:18;;;;;;;2.10;1.90;;;22.20;50.00;;;;;;5014077;28;20479;-74
2023/03/29 01:21:03;;;;;;;2.27;2.10;;;22.20;50.00;;;;;;5021961;28;20487;-74
2023/03/29 01:23:50;;;;;;;2.10;1.90;;;22.20;50.00;;;;;;5023885;28;20526;-74
2023/03/29 01:26:27;;;;;;;1.80;1.70;;;22.20;50.00;;;;;;5012229;28;20467;-73
2023/03/29 01:29:02;;;;;;;1.60;1.50;;;22.20;50.10;;;;;;5002668;28;20565;-74
2023/03/29 01:31:33;;;;;;;1.70;1.60;;;22.20;50.10;;;;;;5003917;28;20539;-72
2023/03/29 01:34:09;;;;;;;1.60;1.50;;;22.20;50.10;;;;;;5018212;28;20464;-72
2023/03/29 01:36:43;;;;;;;1.60;1.50;;;22.20;50.10;;;;;;5019928;28;20478;-74
2023/03/29 01:39:11;;;;;;;2.10;1.93;;;22.20;50.10;;;;;;5024126;28;20864;-73
2023/03/29 01:41:46;;;;;;;2.63;1.77;;;22.20;50.10;;;;;;5023872;28;20465;-74
2023/03/29 01:44:20;;;;;;;2.07;1.77;;;22.20;50.10;;;;;;5029403;28;20537;-74
2023/03/29 01:46:54;;;;;;;2.30;1.70;;;22.20;50.10;;;;;;5030733;28;20444;-73
2023/03/29 01:49:25;;;;;;;1.77;1.67;;;22.20;50.20;;;;;;5013944;28;20501;-75
2023/03/29 01:51:59;;;;;;;1.87;1.77;;;22.20;50.20;;;;;;5011674;28;20548;-76
2023/03/29 01:54:31;;;;;;;1.73;1.63;;;22.20;50.20;;;;;;5019086;28;21133;-74
2023/03/29 01:57:03;;;;;;;1.60;1.43;;;22.20;50.20;;;;;;5019206;28;20566;-73
2023/03/29 01:59:35;;;;;;;2.60;2.20;;;22.20;50.20;;;;;;4992957;28;20947;-75
2023/03/29 02:02:10;;;;;;;1.80;1.70;;;22.20;50.20;;;;;;5012613;28;20478;-75
2023/03/29 02:04:43;;;;;;;1.70;1.60;;;22.20;50.20;;;;;;5011736;28;20467;-72
2023/03/29 02:07:15;;;;;;;1.77;1.67;;;22.20;50.20;;;;;;5009377;28;20534;-75
2023/03/29 02:09:45;;;;;;;2.10;1.90;;;22.20;50.20;;;;;;5008572;28;20460;-75
2023/03/29 02:12:15;;;;;;;1.67;1.57;;;22.20;50.20;;;;;;5011758;28;20463;-76
2023/03/29 02:14:45;;;;;;;1.80;1.53;;;22.20;50.30;;;;;;5013736;28;20472;-74
2023/03/29 02:17:18;;;;;;;1.80;1.70;;;22.20;50.30;;;;;;4992027;28;20480;-78
2023/03/29 02:19:50;;;;;;;1.57;1.47;;;22.20;50.30;;;;;;4997833;28;20466;-73
2023/03/29 02:22:24;;;;;;;1.90;1.80;;;22.20;50.30;;;;;;5029377;28;20428;-78
2023/03/29 02:24:57;;;;;;;1.80;1.70;;;22.20;50.30;;;;;;5015177;28;20456;-74
2023/03/29 02:27:27;;;;;;;2.00;1.90;;;22.20;50.30;;;;;;5016012;28;20950;-73
2023/03/29 02:29:58;;;;;;;1.70;1.60;;;22.20;50.30;;;;;;5012092;28;20459;-73
2023/03/29 02:32:34;;;;;;;1.63;1.53;;;22.20;50.30;;;;;;5028820;28;20482;-76
2023/03/29 02:35:07;;;;;;;1.50;1.40;;;22.20;50.30;;;;;;5000020;28;20475;-73
2023/03/29 02:37:39;;;;;;;1.73;1.63;;;22.20;50.30;;;;;;5004174;28;20494;-73
2023/03/29 02:40:11;;;;;;;1.87;1.77;;;22.20;50.30;;;;;;4995615;28;20484;-73
2023/03/29 02:42:41;;;;;;;1.60;1.50;;;22.20;50.40;;;;;;5012571;28;20447;-73
2023/03/29 02:45:14;;;;;;;1.50;1.40;;;22.20;50.40;;;;;;5012675;28;20469;-74
2023/03/29 02:47:48;;;;;;;1.40;1.30;;;22.20;50.40;;;;;;4993932;28;20443;-73
2023/03/29 02:50:16;;;;;;;1.60;1.50;;;22.20;50.40;;;;;;5011407;28;20471;-73
2023/03/29 02:52:52;;;;;;;1.33;1.33;;;22.10;50.40;;;;;;5012530;28;20540;-73
2023/03/29 02:55:23;;;;;;;1.80;1.70;;;22.20;50.40;;;;;;5017248;28;20470;-72
2023/03/29 02:57:51;;;;;;;1.90;1.80;;;22.10;50.40;;;;;;5028538;28;20472;-73
2023/03/29 03:00:22;;;;;;;2.33;1.67;;;22.20;50.40;;;;;;5027813;28;20469;-72
2023/03/29 03:02:50;;;;;;;1.60;1.50;;;22.20;50.40;;;;;;5034293;28;20814;-73
2023/03/29 03:05:19;;;;;;;1.87;1.73;;;22.20;50.40;;;;;;5009620;28;20973;-72
2023/03/29 03:07:47;;;;;;;1.83;1.60;;;22.20;50.40;;;;;;5016608;28;20978;-73
2023/03/29 03:10:18;;;;;;;1.60;1.50;;;22.10;50.40;;;;;;5028354;28;20462;-74
2023/03/29 03:12:46;;;;;;;1.47;1.37;;;22.10;50.50;;;;;;5023405;28;20466;-73
2023/03/29 03:15:14;;;;;;;1.63;1.53;;;22.10;50.50;;;;;;5016623;28;20453;-74
2023/03/29 03:17:45;;;;;;;1.20;1.10;;;22.10;50.50;;;;;;5010045;28;20481;-74
2023/03/29 03:20:13;;;;;;;1.40;1.30;;;22.10;50.50;;;;;;4997066;28;20891;-76
2023/03/29 03:22:44;;;;;;;1.37;1.27;;;22.10;50.50;;;;;;5030914;28;20973;-73
2023/03/29 03:25:12;;;;;;;1.50;1.40;;;22.10;50.50;;;;;;5016765;28;20470;-73
2023/03/29 03:27:41;;;;;;;1.40;1.30;;;22.10;50.50;;;;;;5014242;28;21615;-74
2023/03/29 03:30:10;;;;;;;1.87;1.67;;;22.10;50.50;;;;;;5015035;28;20853;-74
2023/03/29 03:32:57;;;;;;;1.50;1.40;;;22.10;50.50;;;;;;5009687;28;20468;-74
2023/03/29 03:36:01;;;;;;;1.30;1.20;;;22.10;50.60;;;;;;4959878;28;20464;-73
2023/03/29 03:38:30;;;;;;;1.60;1.50;;;22.10;50.60;;;;;;5005229;28;20486;-73
2023/03/29 03:41:00;;;;;;;1.60;1.50;;;22.10;50.60;;;;;;5014559;28;20480;-72
2023/03/29 03:43:32;;;;;;;1.40;1.30;;;22.10;50.60;;;;;;5016657;28;20524;-73
2023/03/29 03:46:01;;;;;;;1.33;1.23;;;22.10;50.60;;;;;;5016480;28;20467;-74
2023/03/29 03:48:32;;;;;;;1.47;1.40;;;22.10;50.60;;;;;;5016328;28;20478;-72
2023/03/29 03:51:08;;;;;;;1.37;1.27;;;22.10;50.60;;;;;;5009999;28;20501;-74
2023/03/29 03:53:36;;;;;;;1.93;1.50;;;22.10;50.60;;;;;;5015828;28;20530;-73
2023/03/29 03:56:14;;;;;;;1.87;1.60;;;22.10;50.60;;;;;;5020952;28;20458;-76
2023/03/29 03:59:00;;;;;;;2.70;1.57;;;22.10;50.60;;;;;;5031952;28;20471;-72
2023/03/29 04:01:34;;;;;;;1.83;1.73;;;22.10;50.60;;;;;;5010072;28;20464;-73
2023/03/29 04:04:13;;;;;;;1.20;1.20;;;22.10;50.70;;;;;;5005312;28;20565;-73
2023/03/29 04:06:52;;;;;;;1.50;1.40;;;22.10;50.70;;;;;;5012765;28;20466;-75
2023/03/29 04:09:26;;;;;;;1.50;1.40;;;22.10;50.70;;;;;;5033391;28;20933;-73
2023/03/29 04:12:10;;;;;;;1.20;1.10;;;22.10;50.70;;;;;;5011971;28;20474;-73
2023/03/29 04:14:40;;;;;;;1.50;1.40;;;22.10;50.70;;;;;;5002122;28;20473;-74
2023/03/29 04:17:16;;;;;;;1.17;1.07;;;22.10;50.70;;;;;;5028375;28;20455;-75
2023/03/29 04:19:52;;;;;;;1.47;1.37;;;22.10;50.70;;;;;;5005300;28;21065;-73
2023/03/29 04:22:20;;;;;;;1.47;1.37;;;22.10;50.70;;;;;;5008720;28;20466;-75
2023/03/29 04:24:49;;;;;;;1.43;1.33;;;22.10;50.70;;;;;;5022691;28;20480;-73
2023/03/29 04:27:36;;;;;;;1.83;1.70;;;22.10;50.70;;;;;;5027086;28;20478;-77
2023/03/29 04:30:12;;;;;;;1.10;1.00;;;22.10;50.70;;;;;;5023707;28;20461;-77
2023/03/29 04:33:05;;;;;;;1.60;1.50;;;22.10;50.70;;;;;;5010765;28;20471;-73
2023/03/29 04:35:37;;;;;;;1.23;1.20;;;22.10;50.80;;;;;;5014309;28;20477;-73
2023/03/29 04:38:08;;;;;;;1.63;1.30;;;22.10;50.80;;;;;;5015040;28;20470;-74
2023/03/29 04:40:38;;;;;;;1.20;1.20;;;22.10;50.80;;;;;;5012803;28;20942;-72
2023/03/29 04:43:13;;;;;;;1.60;1.50;;;22.10;50.80;;;;;;5011032;28;20494;-74
2023/03/29 04:45:52;;;;;;;1.60;1.43;;;22.10;50.80;;;;;;5025097;28;20498;-75
2023/03/29 04:48:40;;;;;;;1.00;1.00;;;22.10;50.80;;;;;;5025333;28;20459;-73
2023/03/29 04:51:10;;;;;;;1.60;1.40;;;22.10;50.80;;;;;;5014591;28;20493;-74
2023/03/29 04:53:39;;;;;;;1.20;1.20;;;22.10;50.80;;;;;;5012274;28;20471;-80
2023/03/29 04:56:08;;;;;;;1.30;1.20;;;22.10;50.80;;;;;;5003128;28;20466;-72
2023/03/29 04:59:09;;;;;;;3.63;1.60;;;22.10;50.80;;;;;;5020959;28;20490;-73
2023/03/29 05:01:38;;;;;;;2.53;1.50;;;22.10;50.80;;;;;;5002739;28;21471;-73
2023/03/29 05:04:06;;;;;;;1.73;1.40;;;22.10;50.90;;;;;;5005594;28;20462;-73
2023/03/29 05:06:42;;;;;;;2.07;1.87;;;22.10;50.90;;;;;;5006736;28;20461;-73
2023/03/29 05:09:11;;;;;;;3.83;1.50;;;22.10;51.00;;;;;;5018391;28;20966;-73
2023/03/29 05:11:49;;;;;;;1.73;1.37;;;22.10;51.00;;;;;;5007594;28;20463;-73
2023/03/29 05:14:19;;;;;;;1.80;1.70;;;22.10;51.10;;;;;;5011520;28;20471;-73
2023/03/29 05:16:48;;;;;;;4.00;1.93;;;22.10;51.20;;;;;;5005502;28;20482;-73
2023/03/29 05:19:16;;;;;;;4.43;1.77;;;22.10;51.20;;;;;;5014472;28;20482;-73
2023/03/29 05:21:49;;;;;;;6.00;1.47;;;22.10;51.30;;;;;;5013528;28;20466;-76
2023/03/29 05:24:21;;;;;;;2.13;1.50;;;22.10;51.30;;;;;;5011066;28;20996;-72
2023/03/29 05:26:58;;;;;;;1.40;1.30;;;22.00;51.40;;;;;;5011744;28;20866;-73
2023/03/29 05:29:31;;;;;;;4.87;1.70;;;22.00;51.50;;;;;;5007667;28;20469;-73
2023/03/29 05:32:29;;;;;;;4.50;1.57;;;22.00;51.50;;;;;;5010551;28;20558;-75
2023/03/29 05:34:57;;;;;;;2.03;1.87;;;22.00;51.50;;;;;;5008286;28;20473;-77
2023/03/29 05:37:27;;;;;;;3.43;1.90;;;22.00;51.50;;;;;;5007089;28;20470;-76
2023/03/29 05:40:05;;;;;;;2.40;1.60;;;22.00;51.60;;;;;;5011922;28;20485;-75
2023/03/29 05:42:43;;;;;;;1.80;1.70;;;22.00;51.60;;;;;;5010637;28;20473;-77
2023/03/29 05:45:11;;;;;;;2.17;1.60;;;22.00;51.60;;;;;;5005901;28;20480;-80
2023/03/29 05:47:40;;;;;;;1.43;1.33;;;22.00;51.60;;;;;;5004788;28;20561;-79
2023/03/29 05:50:10;;;;;;;3.63;1.90;;;22.00;51.60;;;;;;5008826;28;20454;-75
2023/03/29 05:52:40;;;;;;;1.83;1.73;;;22.00;51.70;;;;;;5007906;28;20553;-79
2023/03/29 05:55:09;;;;;;;1.67;1.53;;;22.00;51.70;;;;;;5011187;28;20876;-75
2023/03/29 05:57:38;;;;;;;1.50;1.30;;;22.00;51.80;;;;;;5006646;28;20669;-75
2023/03/29 06:00:15;;;;;;;1.40;1.30;;;22.00;51.80;;;;;;5008281;28;20480;-75
2023/03/29 06:02:44;;;;;;;1.53;1.40;;;22.00;51.80;;;;;;5006968;28;20855;-78
2023/03/29 06:05:13;;;;;;;1.50;1.40;;;22.00;51.80;;;;;;5002280;28;20503;-76
2023/03/29 06:08:00;;;;;;;1.60;1.50;;;22.10;51.80;;;;;;4996010;28;20461;-75
2023/03/29 06:10:47;;;;;;;1.20;1.10;;;22.10;51.80;;;;;;5008006;28;20574;-75
2023/03/29 06:13:51;;;;;;;1.77;1.63;;;22.10;51.80;;;;;;4999879;28;20537;-75
2023/03/29 06:16:20;;;;;;;1.20;1.10;;;22.10;51.80;;;;;;5006740;28;20538;-74
2023/03/29 06:18:48;;;;;;;2.93;2.70;;;22.10;51.80;;;;;;4996504;28;20463;-76
2023/03/29 06:21:16;;;;;;;1.67;1.57;;;22.10;51.90;;;;;;4992935;28;20459;-75
2023/03/29 06:23:46;;;;;;;1.80;1.70;;;22.10;52.00;;;;;;5006176;28;20460;-79
2023/03/29 06:26:17;;;;;;;4.20;2.33;;;22.10;52.10;;;;;;5009493;28;20968;-75
2023/03/29 06:28:47;;;;;;;2.63;1.70;;;22.10;52.10;;;;;;5005093;28;20522;-75
2023/03/29 06:31:19;;;;;;;2.07;1.50;;;22.10;52.20;;;;;;5002091;28;20460;-76
2023/03/29 06:33:51;;;;;;;1.77;1.67;;;22.10;52.30;;;;;;5001769;28;20472;-81
2023/03/29 06:36:33;;;;;;;3.07;1.90;;;22.10;52.40;;;;;;5000255;28;20495;-74
2023/03/29 06:39:07;;;;;;;3.10;1.80;;;22.10;52.90;;;;;;5009599;28;20970;-74
2023/03/29 06:41:50;;;;;;;5.90;2.40;;;22.10;53.10;;;;;;5002312;28;20460;-73
2023/03/29 06:44:34;;;;;;;2.10;1.83;;;22.10;53.30;;;;;;4998529;28;20464;-76
2023/03/29 06:47:12;;;;;;;1.53;1.43;;;22.10;53.50;;;;;;5000498;28;20459;-79
2023/03/29 06:49:40;;;;;;;4.17;2.40;;;22.10;53.60;;;;;;5004125;28;20463;-74
2023/03/29 06:52:28;;;;;;;11.63;3.03;;;22.20;53.60;;;;;;5012621;28;20884;-73
2023/03/29 06:55:00;;;;;;;3.67;2.23;;;22.20;53.60;;;;;;5001866;28;21296;-74
2023/03/29 06:57:29;;;;;;;3.20;1.70;;;22.20;53.60;;;;;;5004953;28;20856;-75
2023/03/29 06:59:58;;;;;;;2.20;1.60;;;22.20;53.60;;;;;;5007033;28;20569;-73
2023/03/29 07:02:56;;;;;;;3.00;1.87;;;22.30;53.60;;;;;;5019459;28;20454;-76
2023/03/29 07:05:26;;;;;;;2.30;1.47;;;22.30;53.50;;;;;;5005740;28;20462;-73
2023/03/29 07:07:58;;;;;;;2.30;2.00;;;22.30;53.50;;;;;;5006377;28;21445;-76
2023/03/29 07:10:40;;;;;;;2.67;2.20;;;22.30;53.40;;;;;;5002976;28;21267;-75
2023/03/29 07:13:37;;;;;;;2.87;2.20;;;22.40;53.30;;;;;;5016868;28;20459;-74
2023/03/29 07:16:11;;;;;;;1.80;1.50;;;22.40;53.20;;;;;;5003884;28;20806;-76
2023/03/29 07:18:53;;;;;;;1.80;1.70;;;22.40;53.20;;;;;;5002904;28;20472;-73
2023/03/29 07:21:41;;;;;;;4.17;1.90;;;22.50;53.10;;;;;;5020596;28;20479;-74
2023/03/29 07:24:10;;;;;;;2.30;1.27;;;22.50;53.00;;;;;;4999451;28;20463;-76
2023/03/29 07:26:40;;;;;;;1.67;1.40;;;22.50;52.90;;;;;;5001065;28;20456;-79
2023/03/29 07:29:28;;;;;;;2.50;2.03;;;22.60;52.90;;;;;;5021149;28;20935;-74
2023/03/29 07:31:57;;;;;;;2.60;1.60;;;22.60;52.80;;;;;;5004527;28;20464;-74
2023/03/29 07:34:43;;;;;;;2.77;1.77;;;22.60;52.80;;;;;;5018321;28;20469;-74
2023/03/29 07:37:23;;;;;;;2.70;1.60;;;22.60;52.70;;;;;;5010076;28;20467;-75
2023/03/29 07:39:52;;;;;;;4.07;1.63;;;22.60;52.90;;;;;;5011045;28;20476;-81
2023/03/29 07:42:38;;;;;;;1.77;1.53;;;22.60;52.80;;;;;;5025698;28;20517;-76
2023/03/29 07:45:10;;;;;;;3.23;1.57;;;22.70;52.70;;;;;;5010139;28;20967;-72
2023/03/29 07:47:54;;;;;;;2.33;1.60;;;22.70;52.70;;;;;;5024325;28;20499;-77
2023/03/29 07:50:22;;;;;;;4.30;1.80;;;22.70;52.60;;;;;;5023636;28;20975;-74
2023/03/29 07:52:55;;;;;;;1.97;1.80;;;22.80;52.60;;;;;;5020504;28;20491;-76
2023/03/29 07:55:24;;;;;;;2.07;1.50;;;22.80;52.50;;;;;;5011781;28;21025;-76
2023/03/29 07:58:02;;;;;;;1.93;1.77;;;22.80;52.50;;;;;;5018836;28;20471;-73
2023/03/29 08:00:33;;;;;;;1.80;1.27;;;22.80;52.40;;;;;;5009153;28;20499;-79
2023/03/29 08:03:33;;;;;;;2.60;1.20;;;22.80;52.40;;;;;;4959342;28;20463;-77
2023/03/29 08:06:02;;;;;;;1.60;1.50;;;22.80;52.30;;;;;;5011107;28;20461;-75
2023/03/29 08:08:30;;;;;;;2.67;1.30;;;22.80;52.00;;;;;;5023353;28;20806;-74
2023/03/29 08:11:06;;;;;;;2.30;1.70;;;22.80;51.90;;;;;;5010335;28;20475;-74
2023/03/29 08:14:07;;;;;;;2.57;1.90;;;22.80;51.80;;;;;;5025482;28;20541;-76
2023/03/29 08:16:54;;;;;;;2.17;1.57;;;22.80;52.00;;;;;;5030230;28;20995;-73
2023/03/29 08:19:22;;;;;;;1.53;1.40;;;22.80;52.10;;;;;;5024286;28;20456;-72
2023/03/29 08:22:03;;;;;;;1.47;1.37;;;22.80;52.10;;;;;;5020615;28;20528;-73
2023/03/29 08:24:51;;;;;;;3.20;1.77;;;22.80;52.10;;;;;;5018289;28;20815;-73
2023/03/29 08:27:22;;;;;;;3.03;1.70;;;22.80;52.10;;;;;;5021482;28;20467;-76
2023/03/29 08:29:51;;;;;;;3.43;1.40;;;22.90;52.10;;;;;;5016625;28;20550;-72
2023/03/29 08:32:20;;;;;;;2.90;1.43;;;22.90;52.20;;;;;;5009296;28;21006;-73
2023/03/29 08:34:49;;;;;;;1.40;1.30;;;22.90;52.20;;;;;;5011239;28;20484;-75
2023/03/29 08:37:31;;;;;;;2.30;1.70;;;22.90;52.10;;;;;;5016049;28;20460;-75
2023/03/29 08:40:00;;;;;;;4.93;1.37;;;23.00;52.10;;;;;;5012798;28;20456;-73
2023/03/29 08:43:20;;;;;;;2.10;1.27;;;23.00;52.10;;;;;;5029319;28;20476;-72
2023/03/29 08:46:20;;;;;;;1.80;1.70;;;23.10;52.00;;;;;;5029470;28;20454;-72
2023/03/29 08:48:55;;;;;;;1.57;1.20;;;23.10;51.90;;;;;;5020585;28;20459;-75
2023/03/29 08:51:28;;;;;;;5.40;1.60;;;23.10;51.90;;;;;;5016656;28;20506;-72
2023/03/29 08:54:01;;;;;;;1.50;1.37;;;23.10;51.80;;;;;;5016441;28;20463;-74
2023/03/29 08:56:46;;;;;;;1.77;1.67;;;23.20;51.70;;;;;;5014528;28;21066;-72
2023/03/29 08:59:29;;;;;;;1.43;1.33;;;23.20;51.70;;;;;;5007267;28;20462;-73
2023/03/29 09:02:04;;;;;;;1.40;1.33;;;23.20;51.70;;;;;;5009344;28;20914;-72
2023/03/29 09:04:36;;;;;;;2.13;1.40;;;23.20;51.70;;;;;;5012340;28;20507;-71
2023/03/29 09:07:25;;;;;;;1.83;1.53;;;23.30;51.60;;;;;;5017874;28;20466;-75
2023/03/29 09:09:55;;;;;;;3.60;1.67;;;23.30;51.60;;;;;;5026315;28;20460;-72
2023/03/29 09:12:54;;;;;;;1.57;1.47;;;23.30;51.70;;;;;;5015583;28;20479;-73
2023/03/29 09:15:30;;;;;;;2.57;1.30;;;23.30;51.70;;;;;;5012315;28;20471;-73
2023/03/29 09:18:23;;;;;;;1.60;1.30;;;23.30;51.70;;;;;;5019390;28;20534;-72
2023/03/29 09:20:57;;;;;;;1.50;1.37;;;23.20;51.70;;;;;;5013425;28;20511;-73
2023/03/29 09:23:53;;;;;;;1.90;1.50;;;23.20;51.70;;;;;;5010562;28;20460;-73
2023/03/29 09:26:48;;;;;;;2.00;1.30;;;23.20;51.70;;;;;;5022936;28;20943;-74
2023/03/29 09:29:52;;;;;;;4.00;1.50;;;23.20;51.50;;;;;;5023562;28;20459;-74
2023/03/29 09:32:31;;;;;;;4.57;1.57;;;23.10;51.30;;;;;;5009094;28;20497;-74
2023/03/29 09:35:17;;;;;;;2.10;1.67;;;23.10;51.10;;;;;;5015701;28;20504;-73
2023/03/29 09:37:48;;;;;;;2.23;1.73;;;23.10;51.10;;;;;;5002702;28;20488;-73
2023/03/29 09:40:20;;;;;;;1.30;1.20;;;23.10;51.10;;;;;;5030246;28;20476;-77
2023/03/29 09:42:58;;;;;;;1.67;1.17;;;23.10;51.10;;;;;;5010399;28;20553;-73
2023/03/29 09:45:26;;;;;;;1.23;1.13;;;23.10;51.20;;;;;;5024644;28;20551;-74
2023/03/29 09:47:58;;;;;;;1.70;1.33;;;23.10;51.30;;;;;;5013451;28;20874;-74
2023/03/29 09:50:36;;;;;;;1.90;1.27;;;23.00;51.30;;;;;;5012515;28;20503;-76
2023/03/29 09:53:07;;;;;;;1.53;1.10;;;23.00;51.30;;;;;;5007335;28;21069;-77
2023/03/29 09:55:39;;;;;;;1.33;1.23;;;23.00;51.30;;;;;;5007466;28;20478;-74
2023/03/29 09:58:17;;;;;;;1.43;1.33;;;23.10;51.30;;;;;;5017525;28;20459;-75
2023/03/29 10:00:50;;;;;;;2.93;1.47;;;23.10;51.40;;;;;;5019057;28;20487;-75
2023/03/29 10:03:20;;;;;;;2.77;1.77;;;23.10;51.30;;;;;;5016768;28;20448;-73
2023/03/29 10:06:01;;;;;;;1.30;1.20;;;23.10;51.20;;;;;;5013207;28;20800;-76
2023/03/29 10:08:36;;;;;;;1.60;1.50;;;23.10;51.10;;;;;;5022019;28;20498;-77
2023/03/29 10:11:17;;;;;;;1.40;1.30;;;23.10;50.90;;;;;;5006108;28;20579;-77
2023/03/29 10:13:49;;;;;;;2.23;1.43;;;23.10;50.90;;;;;;5028078;28;20464;-75
2023/03/29 10:16:21;;;;;;;1.70;1.60;;;23.10;50.80;;;;;;5029695;28;20491;-79
2023/03/29 10:18:50;;;;;;;1.30;1.20;;;23.10;50.80;;;;;;5021284;28;20513;-74
2023/03/29 10:21:20;;;;;;;1.57;1.47;;;23.10;50.80;;;;;;5010320;28;20842;-76
2023/03/29 10:23:56;;;;;;;1.40;1.27;;;23.00;50.70;;;;;;5028868;28;20459;-74
2023/03/29 10:26:29;;;;;;;2.63;1.57;;;23.00;50.70;;;;;;5029544;28;20487;-75
2023/03/29 10:29:00;;;;;;;1.50;1.40;;;23.00;50.80;;;;;;5022575;28;20824;-77
2023/03/29 10:31:31;;;;;;;1.50;1.00;;;23.00;50.80;;;;;;5021211;28;20460;-76
2023/03/29 10:34:03;;;;;;;3.53;1.60;;;23.00;50.80;;;;;;5029728;28;20448;-75
2023/03/29 10:36:33;;;;;;;1.87;1.77;;;23.00;50.80;;;;;;5022997;28;20945;-75
2023/03/29 10:39:04;;;;;;;1.50;1.40;;;23.00;50.70;;;;;;5023460;28;20459;-75
2023/03/29 10:41:35;;;;;;;1.63;1.37;;;23.00;50.80;;;;;;5017930;28;20468;-75
2023/03/29 10:44:04;;;;;;;1.40;1.20;;;23.00;50.80;;;;;;5030459;28;20458;-78
2023/03/29 10:46:39;;;;;;;1.37;1.27;;;23.00;50.80;;;;;;5010253;28;20460;-77
2023/03/29 10:49:18;;;;;;;1.57;1.20;;;23.00;50.90;;;;;;5023216;28;20460;-76
2023/03/29 10:51:49;;;;;;;1.95;1.05;;;23.00;50.80;;;;;;5024517;28;20522;-75
2023/03/29 10:54:20;;;;;;;4.40;1.30;;;23.00;50.80;;;;;;5021932;28;20204;-75
2023/03/29 10:56:52;;;;;;;1.73;1.00;;;23.00;51.10;;;;;;5023203;28;20476;-74
2023/03/29 10:59:27;;;;;;;1.47;1.37;;;23.00;51.20;;;;;;5030145;28;20447;-75
2023/03/29 11:02:19;;;;;;;4.30;1.47;;;23.00;51.30;;;;;;5030120;28;20566;-74
2023/03/29 11:04:56;;;;;;;1.40;0.90;;;23.10;51.50;;;;;;5026001;28;20523;-78
2023/03/29 11:07:32;;;;;;;1.20;1.10;;;23.20;51.40;;;;;;5029058;28;20529;-74
2023/03/29 11:10:07;;;;;;;2.00;1.20;;;23.30;51.10;;;;;;5028027;28;20443;-74
2023/03/29 11:12:42;;;;;;;1.73;1.60;;;23.30;51.10;;;;;;5031255;28;20473;-78
2023/03/29 11:15:23;;;;;;;1.63;1.30;;;23.40;51.10;;;;;;5029238;28;20448;-74
2023/03/29 11:18:01;;;;;;;4.20;1.63;;;23.40;51.00;;;;;;5027227;28;21055;-74
2023/03/29 11:20:36;;;;;;;2.60;1.63;;;23.40;51.00;;;;;;5022426;28;20459;-74
2023/03/29 11:23:21;;;;;;;1.23;0.97;;;23.40;51.00;;;;;;5024930;28;20834;-74
2023/03/29 11:25:59;;;;;;;2.20;1.37;;;23.40;51.10;;;;;;5002170;28;20566;-72
2023/03/29 11:28:34;;;;;;;2.90;1.60;;;23.40;51.10;;;;;;5024486;28;20458;-74
2023/03/29 11:31:08;;;;;;;1.80;1.70;;;23.40;51.10;;;;;;5024613;28;20951;-74
2023/03/29 11:33:49;;;;;;;1.60;1.40;;;23.40;51.10;;;;;;5023416;28;20502;-77
2023/03/29 11:36:25;;;;;;;2.10;1.80;;;23.50;51.10;;;;;;5022691;28;20488;-78
2023/03/29 11:39:03;;;;;;;2.70;1.50;;;23.50;51.10;;;;;;5029732;28;20455;-74
2023/03/29 11:41:34;;;;;;;3.87;1.60;;;23.50;51.10;;;;;;5021898;28;20462;-74
2023/03/29 11:44:05;;;;;;;3.70;1.27;;;23.50;51.20;;;;;;5020850;28;20652;-73
2023/03/29 11:46:37;;;;;;;1.30;1.30;;;23.50;51.30;;;;;;5022714;28;21692;-75
2023/03/29 11:49:11;;;;;;;1.80;1.37;;;23.50;51.10;;;;;;5026739;28;20533;-72
2023/03/29 11:51:45;;;;;;;2.17;1.20;;;23.60;51.00;;;;;;5022020;28;20481;-74
2023/03/29 11:54:20;;;;;;;2.40;1.00;;;23.60;51.10;;;;;;5025343;28;21751;-77
2023/03/29 11:56:53;;;;;;;1.80;1.23;;;23.50;51.10;;;;;;5027031;28;20870;-74
2023/03/29 11:59:27;;;;;;;2.60;1.53;;;23.60;51.10;;;;;;5022480;28;20457;-74
2023/03/29 12:02:01;;;;;;;3.17;1.80;;;23.50;51.10;;;;;;5024516;28;20466;-74
2023/03/29 12:04:34;;;;;;;3.03;2.00;;;23.60;51.10;;;;;;5025861;28;20452;-78
2023/03/29 12:07:12;;;;;;;2.83;1.40;;;23.60;51.20;;;;;;5021209;28;20943;-75
2023/03/29 12:09:48;;;;;;;2.03;1.40;;;23.60;51.20;;;;;;5025948;28;20505;-77
2023/03/29 12:12:23;;;;;;;5.03;1.30;;;23.60;51.30;;;;;;5022605;28;20476;-74
2023/03/29 12:15:00;;;;;;;1.67;1.00;;;23.60;51.30;;;;;;5022236;28;20484;-77
2023/03/29 12:17:32;;;;;;;3.40;1.60;;;23.50;51.20;;;;;;5026358;28;20488;-76
2023/03/29 12:20:13;;;;;;;1.30;1.20;;;23.60;51.10;;;;;;5022390;28;20457;-75
2023/03/29 12:22:47;;;;;;;1.27;1.10;;;23.60;51.10;;;;;;5013262;28;20481;-78
2023/03/29 12:25:21;;;;;;;2.60;1.57;;;23.60;51.10;;;;;;5023787;28;20444;-75
2023/03/29 12:28:02;;;;;;;3.47;1.37;;;23.60;51.10;;;;;;5021978;28;20510;-79
2023/03/29 12:30:49;;;;;;;2.43;1.40;;;23.60;51.10;;;;;;5023105;28;20943;-77
2023/03/29 12:33:50;;;;;;;0.90;0.90;;;23.60;51.20;;;;;;5018843;28;20457;-75
2023/03/29 12:36:56;;;;;;;1.40;1.30;;;23.60;51.30;;;;;;5005279;28;20473;-73
2023/03/29 12:39:51;;;;;;;6.93;1.80;;;23.60;51.30;;;;;;5003016;28;20449;-73
2023/03/29 12:42:55;;;;;;;1.77;1.40;;;23.60;51.30;;;;;;4969433;28;20469;-76
2023/03/29 12:45:40;;;;;;;1.90;1.30;;;23.60;51.30;;;;;;5005189;28;21382;-75
2023/03/29 12:48:16;;;;;;;1.63;1.13;;;23.60;51.30;;;;;;5021487;28;20461;-77
2023/03/29 12:50:49;;;;;;;1.77;1.30;;;23.60;51.30;;;;;;5019258;28;20483;-76
2023/03/29 12:53:22;;;;;;;1.80;1.17;;;23.60;51.20;;;;;;5021051;28;20476;-75
2023/03/29 12:55:55;;;;;;;1.17;1.10;;;23.60;51.30;;;;;;5022703;28;20461;-76
2023/03/29 12:58:42;;;;;;;1.73;1.20;;;23.60;51.30;;;;;;5020044;28;20564;-78
2023/03/29 13:01:25;;;;;;;1.77;1.67;;;23.60;51.20;;;;;;5020507;28;20535;-75
2023/03/29 13:03:57;;;;;;;3.20;2.03;;;23.60;51.20;;;;;;5021520;28;20477;-75
2023/03/29 13:06:32;;;;;;;2.50;1.67;;;23.60;51.20;;;;;;5018750;28;20468;-74
2023/03/29 13:09:03;;;;;;;1.37;1.17;;;23.60;51.10;;;;;;5019240;28;20547;-74
2023/03/29 13:11:34;;;;;;;1.20;1.10;;;23.70;50.90;;;;;;5020808;28;20488;-81
2023/03/29 13:14:12;;;;;;;1.57;1.47;;;23.70;50.80;;;;;;5023435;28;20466;-77
2023/03/29 13:16:42;;;;;;;2.70;1.50;;;23.70;51.00;;;;;;5021992;28;20489;-76
2023/03/29 13:19:29;;;;;;;2.77;1.67;;;23.70;51.10;;;;;;5019984;28;20560;-75
2023/03/29 13:22:09;;;;;;;3.90;1.50;;;23.70;51.20;;;;;;5020753;28;20468;-78
2023/03/29 13:25:04;;;;;;;1.40;1.23;;;23.70;51.20;;;;;;5022068;28;20499;-72
2023/03/29 13:27:44;;;;;;;1.60;1.13;;;23.80;51.20;;;;;;5022086;28;20979;-73
2023/03/29 13:30:32;;;;;;;1.23;1.13;;;23.80;51.40;;;;;;5020861;28;20928;-75